Decoded Metar for LYUZ (UZICE PONIKVE in SERBIA) (IATA:N/A) | Meteo·Mobile Aviation Weather
aviador You're here:

LYUZ Decoded Metar

UZICE PONIKVE in SERBIA
Report Time2018-11-12 17:30:00
UTC Time2018-11-12 18:05:15
Flight Rules vfr VFR
WindCalm
Visibility9999 m
Phenomena:N/A
Clouds:N/A
Expected CloudBase > 1,600 ft AGL from Temp-Dew spread
CeilingNone
Temp06°C (ISA -3)
Dew Point02°C (76% RH)
AAT4.3°C
QNH1027 hPa
Density Alt2,283 ft
Elevation3,012 ft
Report Wrong Elevation
Raw Report
METAR LYUZ 121730Z 00000KT CAVOK 06/02 Q1027=

Extra information for LYUZ:More info

Metar Taf Metar & Taf Last 4 Metars F.Rules Stats Wind Profile Meteogram Temp Stats Airport Information Weather charts Add Link Nearby VenuesMetar ALERT Operation Metar Decoded Social comments